Lund, Texas
Current Conditions -  °F | °C
As of 10:35 PM on Saturday 25 Oct 2014 (Local Time) from KEDC Reporting Station
Broken Clouds Broken Clouds  
Wind Chill: 70°   Ceiling: 4400
Heat Index: 70°   Visibility: 10mi
Dew Point: 59°   Wind: 0mph
Humidity: 68%   Direction: NA
Pressure: 30.1"   Gusts: NA
Location:  30.2988°N, 97.3874°W
Report Text: KEDC 260335Z AUTO 00000KT 10SM SCT037 BKN044 21/15 A3010 RMK AO2
Loading
Personal Weather Stations






























Interactive Weather Map
Tropical Storm Tracking
New forecast layout! Learn more

10-Day Weather Forecast

Advertisements
Track Severe Weather on mobile